Pekanbaru

Airport
ICAO code: 
WIBB
Summary
ICAO Region: 
APAC
Territory: 
Location: 
Pekanbaru,
Coordinates: 
Aerial View: 
0° 27' 53.076" N, 101° 26' 47.103" E
Airport WX: 
Volcanic Ash
Metar
Observation
WIBB 281400Z 00000KT 7000 SCT013 28/24 Q1008 NOSIG
Station
Pakanbaru / Simpangtiga
Date/Time
2021-11-28 14:00:00
Wind direction
Wind speed
00 kts
Lowest cloud amount
scattered clouds
Temperature
28°C
Dew point
24°C
Humidity
78%
QNH
1008 hPa
Weather condition
n/a

Description

International airport serving Pekanbaru, Sumatra, Indonesia.

Climatology

Tropical Rainforest climate (Köppen climate classification Af) - almost no distinct seasons, average daily temperature around 27°C throughout the year. Extensive cloud cover and heavy rainfall prevent temperatures from rising much over 33°C. The diurnal temperature change is between 2°C and 5°C which is greater than the annual temperature range of 2°C. Rainfall is heavy and is usually convectional and in the afternoon.

Runways

Designator Length Width Surface Rops
18/36 2243 30 ASP Yes/Yes
Airport map: 
Aerial View: 

Accidents and Serious Incidents at or in the vicinity of WIBB

SKYbrary Partners:

Safety knowledge contributed by: